Time;durP1;ratioP1;P1;durP2;ratioP2;P2;SDS_P1;SDS_P2;PMS_P1;PMS_P2;Temp;Humidity;BMP_temperature;BMP_pressure;BME280_temperature;BME280_humidity;BME280_pressure;Samples;Min_cycle;Max_cycle;Signal;HPM_P1;HPM_P2
2023/05/23 00:00:36;;;;;;;15.77;8.80;;;15.10;99.90;;;;;;4987526;28;20406;-64
2023/05/23 00:03:03;;;;;;;16.30;9.30;;;15.10;99.90;;;;;;4972148;28;20077;-63
2023/05/23 00:05:28;;;;;;;17.40;11.07;;;15.00;99.90;;;;;;4987627;28;20026;-64
2023/05/23 00:07:54;;;;;;;20.45;11.38;;;15.00;99.90;;;;;;4988310;28;20026;-64
2023/05/23 00:10:21;;;;;;;17.38;10.82;;;15.00;99.90;;;;;;4988256;28;20033;-63
2023/05/23 00:12:46;;;;;;;18.00;12.32;;;14.90;99.90;;;;;;4981571;28;20033;-63
2023/05/23 00:15:13;;;;;;;18.75;12.25;;;14.80;99.90;;;;;;4973647;28;20031;-63
2023/05/23 00:17:38;;;;;;;20.38;11.68;;;14.80;99.90;;;;;;4978823;28;20026;-63
2023/05/23 00:20:10;;;;;;;21.52;12.05;;;14.80;99.90;;;;;;4980038;28;20397;-64
2023/05/23 00:22:38;;;;;;;26.35;13.57;;;14.80;99.90;;;;;;4978735;28;20027;-64
2023/05/23 00:25:05;;;;;;;32.88;19.10;;;14.80;99.90;;;;;;4981367;28;20396;-64
2023/05/23 00:27:30;;;;;;;38.10;20.65;;;14.90;99.90;;;;;;4978224;28;20556;-64
2023/05/23 00:29:56;;;;;;;33.10;20.50;;;14.90;99.90;;;;;;4960134;28;20051;-64
2023/05/23 00:32:21;;;;;;;35.40;20.27;;;14.90;99.90;;;;;;4982442;28;20023;-63
2023/05/23 00:34:47;;;;;;;31.98;19.15;;;14.80;99.90;;;;;;4985253;28;21851;-64
2023/05/23 00:37:14;;;;;;;36.58;18.45;;;14.80;99.90;;;;;;4985301;28;20035;-64
2023/05/23 00:39:39;;;;;;;32.30;18.25;;;14.70;99.90;;;;;;4980851;28;20094;-64
2023/05/23 00:42:05;;;;;;;30.23;17.42;;;14.60;99.90;;;;;;4983342;28;20026;-64
2023/05/23 00:44:31;;;;;;;29.70;16.02;;;14.50;99.90;;;;;;4984172;28;20030;-64
2023/05/23 00:46:57;;;;;;;28.15;14.45;;;14.50;99.90;;;;;;4970544;28;20026;-64
2023/05/23 00:49:23;;;;;;;24.23;14.27;;;14.40;99.90;;;;;;4992934;28;20061;-62
2023/05/23 00:51:50;;;;;;;21.05;12.93;;;14.30;99.90;;;;;;4990030;28;20030;-64
2023/05/23 00:54:42;;;;;;;21.23;14.05;;;14.30;99.90;;;;;;4991455;28;20041;-63
2023/05/23 00:57:08;;;;;;;24.60;12.40;;;14.20;99.90;;;;;;4985834;28;20072;-64
2023/05/23 00:59:36;;;;;;;21.20;12.80;;;14.30;99.90;;;;;;4974295;28;20700;-63
2023/05/23 01:02:02;;;;;;;24.48;13.13;;;14.30;99.90;;;;;;4989519;28;20027;-64
2023/05/23 01:04:28;;;;;;;18.70;11.80;;;14.30;99.90;;;;;;4980277;28;20026;-63
2023/05/23 01:06:54;;;;;;;24.55;13.38;;;14.30;99.90;;;;;;4981322;28;20037;-65
2023/05/23 01:09:23;;;;;;;24.33;12.82;;;14.20;99.90;;;;;;4985088;28;20035;-65
2023/05/23 01:12:24;;;;;;;22.65;11.90;;;14.30;99.90;;;;;;4987352;28;20061;-64
2023/05/23 01:15:01;;;;;;;16.98;10.43;;;14.30;99.90;;;;;;4972571;28;20939;-64
2023/05/23 01:17:51;;;;;;;15.70;10.75;;;14.40;99.90;;;;;;4988095;28;20518;-65
2023/05/23 01:20:21;;;;;;;14.15;10.18;;;14.50;99.90;;;;;;4985326;28;20034;-65
2023/05/23 01:22:59;;;;;;;17.10;11.05;;;14.50;99.90;;;;;;4989114;28;20294;-65
2023/05/23 01:25:27;;;;;;;19.63;11.27;;;14.70;99.90;;;;;;4980536;28;20535;-65
2023/05/23 01:27:59;;;;;;;18.20;10.98;;;14.80;99.90;;;;;;4985704;28;20035;-64
2023/05/23 01:30:30;;;;;;;17.35;11.25;;;14.80;99.90;;;;;;4971845;28;20101;-64
2023/05/23 01:32:58;;;;;;;14.43;10.02;;;14.80;99.90;;;;;;4980294;28;20452;-64
2023/05/23 01:35:26;;;;;;;15.70;9.50;;;14.90;99.90;;;;;;4980810;28;20023;-66
2023/05/23 01:37:52;;;;;;;15.85;9.52;;;14.90;99.90;;;;;;4982285;28;20026;-65
2023/05/23 01:40:18;;;;;;;14.63;9.15;;;14.90;99.90;;;;;;4981757;28;20114;-65
2023/05/23 01:42:44;;;;;;;18.42;10.32;;;14.90;99.90;;;;;;4986051;28;20543;-66
2023/05/23 01:45:11;;;;;;;16.58;9.90;;;14.90;99.90;;;;;;4990489;28;20037;-65
2023/05/23 01:47:39;;;;;;;18.95;10.80;;;14.90;99.90;;;;;;4986513;28;20038;-65
2023/05/23 01:50:06;;;;;;;14.30;9.63;;;14.90;99.90;;;;;;4982602;28;20022;-64
2023/05/23 01:52:33;;;;;;;16.70;9.95;;;14.90;99.90;;;;;;4984320;28;20034;-66
2023/05/23 01:54:59;;;;;;;19.83;10.68;;;14.90;99.90;;;;;;4982552;28;20042;-66
2023/05/23 01:57:28;;;;;;;17.33;10.73;;;14.90;99.90;;;;;;4984560;28;20106;-65
2023/05/23 01:59:53;;;;;;;13.88;9.23;;;14.90;99.90;;;;;;4988329;28;20030;-65
2023/05/23 02:02:20;;;;;;;15.63;10.10;;;14.90;99.90;;;;;;4989184;28;20156;-65
2023/05/23 02:04:48;;;;;;;16.02;10.65;;;15.00;99.90;;;;;;4985667;28;20041;-65
2023/05/23 02:07:14;;;;;;;14.88;9.63;;;14.90;99.90;;;;;;4988452;28;20018;-64
2023/05/23 02:09:39;;;;;;;14.13;9.45;;;15.00;99.90;;;;;;4988854;28;20562;-65
2023/05/23 02:12:05;;;;;;;16.17;10.15;;;15.00;99.90;;;;;;4978771;28;20507;-65
2023/05/23 02:14:31;;;;;;;14.18;10.18;;;15.00;99.90;;;;;;4968869;28;20038;-65
2023/05/23 02:16:56;;;;;;;12.45;8.80;;;14.90;99.90;;;;;;4988435;28;20072;-65
2023/05/23 02:19:22;;;;;;;13.63;8.93;;;14.90;99.90;;;;;;4987460;28;20049;-64
2023/05/23 02:21:47;;;;;;;15.00;9.55;;;14.90;99.90;;;;;;4988616;28;20026;-65
2023/05/23 02:24:13;;;;;;;13.88;9.68;;;14.90;99.90;;;;;;4984587;28;20069;-65
2023/05/23 02:26:40;;;;;;;15.60;10.02;;;15.00;99.90;;;;;;4985806;28;20034;-65
2023/05/23 02:29:06;;;;;;;13.90;9.27;;;14.90;99.90;;;;;;4987124;28;20030;-65
2023/05/23 02:31:31;;;;;;;13.63;10.10;;;14.90;99.90;;;;;;4972225;28;20052;-66
2023/05/23 02:33:57;;;;;;;11.27;9.10;;;14.90;99.90;;;;;;4988233;28;20034;-65
2023/05/23 02:36:22;;;;;;;15.18;10.20;;;14.80;99.90;;;;;;4984159;28;20033;-65
2023/05/23 02:38:48;;;;;;;11.88;9.10;;;14.80;99.90;;;;;;4991849;28;20109;-66
2023/05/23 02:41:14;;;;;;;15.75;10.55;;;14.70;99.90;;;;;;4991378;28;20073;-65
2023/05/23 02:43:39;;;;;;;12.05;8.80;;;14.70;99.90;;;;;;4985658;28;20034;-64
2023/05/23 02:46:05;;;;;;;11.13;8.98;;;14.70;99.90;;;;;;4987683;28;20030;-65
2023/05/23 02:48:30;;;;;;;10.13;8.15;;;14.70;99.90;;;;;;4991454;28;20034;-65
2023/05/23 02:50:56;;;;;;;11.05;8.48;;;14.60;99.90;;;;;;4991433;28;20019;-65
2023/05/23 02:53:21;;;;;;;9.98;7.95;;;14.60;99.90;;;;;;4988971;28;20540;-65
2023/05/23 02:55:47;;;;;;;10.32;8.00;;;14.60;99.90;;;;;;4988024;28;20045;-65
2023/05/23 02:58:13;;;;;;;9.35;7.75;;;14.70;99.90;;;;;;4987014;28;20363;-65
2023/05/23 03:00:39;;;;;;;7.95;6.65;;;14.70;99.90;;;;;;4985230;28;20026;-66
2023/05/23 03:03:05;;;;;;;9.20;7.20;;;14.60;99.90;;;;;;4989540;28;20542;-65
2023/05/23 03:05:30;;;;;;;9.60;8.00;;;14.70;99.90;;;;;;4990817;28;20022;-64
2023/05/23 03:07:56;;;;;;;11.88;6.85;;;14.70;99.90;;;;;;4975885;28;20041;-66
2023/05/23 03:10:22;;;;;;;11.45;7.65;;;14.70;99.90;;;;;;4983847;28;20027;-65
2023/05/23 03:12:47;;;;;;;9.75;6.35;;;14.60;99.90;;;;;;4988187;28;20133;-64
2023/05/23 03:15:13;;;;;;;8.40;6.07;;;14.70;99.90;;;;;;4985951;28;20493;-64
2023/05/23 03:17:38;;;;;;;7.60;5.85;;;14.70;99.90;;;;;;4984160;28;20031;-65
2023/05/23 03:20:08;;;;;;;9.60;7.40;;;14.70;99.90;;;;;;4988159;28;20033;-65
2023/05/23 03:22:34;;;;;;;11.85;6.55;;;14.70;99.90;;;;;;4990547;28;20018;-65
2023/05/23 03:25:00;;;;;;;9.70;7.47;;;14.70;99.90;;;;;;4987675;28;20518;-65
2023/05/23 03:27:26;;;;;;;11.90;7.45;;;14.70;99.90;;;;;;4987282;28;20054;-65
2023/05/23 03:29:51;;;;;;;8.70;6.82;;;14.70;99.90;;;;;;4971995;28;20042;-65
2023/05/23 03:32:17;;;;;;;11.07;5.97;;;14.60;99.90;;;;;;4987962;28;20033;-65
2023/05/23 03:34:42;;;;;;;8.93;6.82;;;14.70;99.90;;;;;;4986616;28;20451;-64
2023/05/23 03:37:08;;;;;;;11.70;5.80;;;14.70;99.90;;;;;;4989806;28;20081;-65
2023/05/23 03:39:33;;;;;;;8.80;5.80;;;14.70;99.90;;;;;;4989246;28;20026;-65
2023/05/23 03:41:59;;;;;;;10.43;5.60;;;14.70;99.90;;;;;;4988595;28;20022;-65
2023/05/23 03:44:24;;;;;;;8.68;5.47;;;14.70;99.90;;;;;;4984825;28;20030;-65
2023/05/23 03:46:50;;;;;;;7.32;5.32;;;14.70;99.90;;;;;;4986920;28;20026;-66
2023/05/23 03:49:15;;;;;;;7.93;5.40;;;14.60;99.90;;;;;;4986658;28;20489;-65
2023/05/23 03:51:41;;;;;;;7.38;4.55;;;14.60;99.90;;;;;;4976732;28;20039;-63
2023/05/23 03:54:06;;;;;;;10.38;5.95;;;14.50;99.90;;;;;;4985155;28;20030;-65
2023/05/23 03:56:32;;;;;;;10.02;6.25;;;14.50;99.90;;;;;;4973092;28;20023;-66
2023/05/23 03:58:58;;;;;;;8.57;5.47;;;14.50;99.90;;;;;;4991132;28;20034;-65
2023/05/23 04:01:23;;;;;;;12.98;7.07;;;14.40;99.90;;;;;;4984410;28;20026;-65
2023/05/23 04:03:50;;;;;;;10.95;6.28;;;14.40;99.90;;;;;;4989981;28;20081;-65
2023/05/23 04:06:16;;;;;;;8.93;5.47;;;14.40;99.90;;;;;;4988467;28;20359;-65
2023/05/23 04:08:42;;;;;;;7.38;5.50;;;14.40;99.90;;;;;;4988472;28;20030;-65
2023/05/23 04:11:08;;;;;;;8.63;5.43;;;14.30;99.90;;;;;;4985571;28;20022;-64
2023/05/23 04:13:34;;;;;;;11.40;5.85;;;14.30;99.90;;;;;;4987799;28;20045;-66
2023/05/23 04:16:04;;;;;;;13.02;6.47;;;14.30;99.90;;;;;;4989344;28;20038;-65
2023/05/23 04:18:32;;;;;;;9.70;5.43;;;14.30;99.90;;;;;;4987392;28;20046;-66
2023/05/23 04:20:58;;;;;;;8.73;5.88;;;14.30;99.90;;;;;;4987729;28;20476;-65
2023/05/23 04:23:23;;;;;;;10.07;5.95;;;14.30;99.90;;;;;;4988407;28;20073;-65
2023/05/23 04:25:50;;;;;;;13.98;7.60;;;14.40;99.90;;;;;;4989421;28;20026;-65
2023/05/23 04:28:16;;;;;;;10.73;7.07;;;14.30;99.90;;;;;;4984373;28;20037;-66
2023/05/23 04:30:42;;;;;;;13.13;7.30;;;14.30;99.90;;;;;;4961919;28;20060;-65
2023/05/23 04:33:09;;;;;;;10.25;6.93;;;14.20;99.90;;;;;;4989956;28;20026;-65
2023/05/23 04:35:37;;;;;;;13.25;7.97;;;14.20;99.90;;;;;;4985741;28;20022;-66
2023/05/23 04:38:03;;;;;;;10.52;7.13;;;14.20;99.90;;;;;;4978814;28;20036;-65
2023/05/23 04:40:30;;;;;;;16.55;6.65;;;14.20;99.90;;;;;;4992887;28;20528;-65
2023/05/23 04:42:56;;;;;;;12.20;7.47;;;14.20;99.90;;;;;;4990387;28;20015;-65
2023/05/23 04:45:22;;;;;;;17.83;8.98;;;14.20;99.90;;;;;;4990901;28;20074;-65
2023/05/23 04:47:47;;;;;;;16.63;8.02;;;14.20;99.90;;;;;;4993992;28;20018;-65
2023/05/23 04:50:17;;;;;;;13.52;8.63;;;14.20;99.90;;;;;;4993665;28;20484;-66
2023/05/23 04:52:42;;;;;;;11.50;8.00;;;14.30;99.90;;;;;;4976095;28;20029;-66
2023/05/23 04:55:08;;;;;;;13.63;8.07;;;14.30;99.90;;;;;;4991327;28;20026;-65
2023/05/23 04:57:34;;;;;;;15.07;8.30;;;14.30;99.90;;;;;;4989050;28;20109;-65
2023/05/23 05:00:00;;;;;;;13.18;8.40;;;14.30;99.90;;;;;;4987305;28;20100;-66
2023/05/23 05:02:26;;;;;;;20.30;8.95;;;14.20;99.90;;;;;;4993903;28;20044;-66
2023/05/23 05:04:52;;;;;;;16.15;10.10;;;14.10;99.90;;;;;;4990387;28;20038;-65
2023/05/23 05:07:17;;;;;;;14.60;9.52;;;14.20;99.90;;;;;;4993274;28;20492;-66
2023/05/23 05:09:43;;;;;;;15.23;9.55;;;14.20;99.90;;;;;;4991960;28;20034;-65
2023/05/23 05:12:09;;;;;;;14.43;9.52;;;14.20;99.90;;;;;;4988625;28;20053;-63
2023/05/23 05:14:34;;;;;;;15.93;10.05;;;14.30;99.90;;;;;;4987403;28;20034;-65
2023/05/23 05:17:01;;;;;;;17.70;9.90;;;14.20;99.90;;;;;;4982488;28;20491;-65
2023/05/23 05:19:27;;;;;;;13.38;8.82;;;14.20;99.90;;;;;;4989243;28;20032;-64
2023/05/23 05:21:52;;;;;;;16.70;9.40;;;14.30;99.90;;;;;;4990905;28;20022;-64
2023/05/23 05:24:19;;;;;;;18.42;10.27;;;14.30;99.90;;;;;;4982729;28;20027;-63
2023/05/23 05:26:46;;;;;;;15.48;9.52;;;14.30;99.90;;;;;;4975211;28;20484;-64
2023/05/23 05:29:12;;;;;;;16.55;10.18;;;14.20;99.90;;;;;;4987323;28;20565;-63
2023/05/23 05:31:37;;;;;;;18.80;9.75;;;14.20;99.90;;;;;;4964183;28;20050;-63
2023/05/23 05:34:03;;;;;;;17.27;11.70;;;14.30;99.90;;;;;;4978480;28;20034;-64
2023/05/23 05:36:30;;;;;;;16.30;11.50;;;14.30;99.90;;;;;;4988179;28;20030;-64
2023/05/23 05:38:56;;;;;;;14.60;10.90;;;14.30;99.90;;;;;;4981121;28;20184;-64
2023/05/23 05:41:22;;;;;;;16.60;11.40;;;14.30;99.90;;;;;;4986910;28;20022;-64
2023/05/23 05:43:47;;;;;;;16.63;11.45;;;14.40;99.90;;;;;;4987636;28;20516;-64
2023/05/23 05:46:13;;;;;;;17.15;10.95;;;14.40;99.90;;;;;;4991744;28;20065;-64
2023/05/23 05:48:38;;;;;;;17.67;11.43;;;14.50;99.90;;;;;;4989205;28;20088;-64
2023/05/23 05:51:04;;;;;;;17.63;11.07;;;14.50;99.90;;;;;;4986605;28;20026;-64
2023/05/23 05:53:30;;;;;;;15.63;10.35;;;14.50;99.90;;;;;;4984464;28;20445;-64
2023/05/23 05:55:55;;;;;;;15.10;10.13;;;14.50;99.90;;;;;;4972574;28;20027;-63
2023/05/23 05:58:21;;;;;;;14.95;9.93;;;14.70;99.90;;;;;;4989014;28;20038;-64
2023/05/23 06:00:47;;;;;;;12.18;9.32;;;14.70;99.90;;;;;;4981737;28;20106;-64
2023/05/23 06:03:14;;;;;;;11.23;8.40;;;14.80;99.90;;;;;;4986658;28;20054;-64
2023/05/23 06:05:40;;;;;;;11.98;8.55;;;14.80;99.90;;;;;;4985489;28;20113;-63
2023/05/23 06:08:06;;;;;;;10.63;7.28;;;14.90;99.90;;;;;;4986904;28;20117;-64
2023/05/23 06:10:31;;;;;;;11.30;8.02;;;14.90;99.90;;;;;;4985126;28;20026;-64
2023/05/23 06:12:58;;;;;;;13.80;7.68;;;15.00;99.90;;;;;;4990890;28;20085;-64
2023/05/23 06:15:24;;;;;;;11.88;8.27;;;14.90;99.90;;;;;;4989415;28;20027;-65
2023/05/23 06:17:50;;;;;;;10.30;8.00;;;14.90;99.90;;;;;;4990366;28;20025;-65
2023/05/23 06:20:15;;;;;;;18.77;8.90;;;14.90;99.90;;;;;;4986625;28;20061;-65
2023/05/23 06:22:41;;;;;;;12.80;9.07;;;14.90;99.90;;;;;;4990543;28;20026;-66
2023/05/23 06:25:07;;;;;;;13.48;9.60;;;14.90;99.90;;;;;;4989975;28;20030;-65
2023/05/23 06:27:33;;;;;;;18.38;9.88;;;14.80;99.90;;;;;;4990473;28;20081;-65
2023/05/23 06:29:58;;;;;;;18.75;10.38;;;14.80;99.90;;;;;;4987752;28;20088;-65
2023/05/23 06:32:24;;;;;;;18.42;10.27;;;14.90;99.90;;;;;;4971719;28;20085;-65
2023/05/23 06:34:49;;;;;;;13.77;9.75;;;14.90;99.90;;;;;;4986319;28;20029;-65
2023/05/23 06:37:16;;;;;;;17.67;10.95;;;14.90;99.90;;;;;;4991134;28;20134;-64
2023/05/23 06:39:42;;;;;;;18.42;11.27;;;14.90;99.90;;;;;;4985663;28;20039;-65
2023/05/23 06:42:08;;;;;;;22.08;11.20;;;14.90;99.90;;;;;;4987555;28;20035;-66
2023/05/23 06:44:33;;;;;;;18.05;11.30;;;14.90;99.90;;;;;;4986383;28;20022;-68
2023/05/23 06:46:59;;;;;;;19.30;11.68;;;14.80;99.90;;;;;;4991865;28;20492;-66
2023/05/23 06:49:25;;;;;;;20.58;11.68;;;14.90;99.90;;;;;;4977479;28;20033;-64
2023/05/23 06:51:51;;;;;;;17.65;12.02;;;14.90;99.90;;;;;;4986104;28;20026;-65
2023/05/23 06:54:17;;;;;;;22.60;11.77;;;14.90;99.90;;;;;;4986587;28;20042;-65
2023/05/23 06:56:43;;;;;;;26.33;14.25;;;14.80;99.90;;;;;;4987996;28;20042;-64
2023/05/23 06:59:09;;;;;;;35.08;15.27;;;14.80;99.90;;;;;;4989051;28;20034;-64
2023/05/23 07:01:35;;;;;;;27.13;16.08;;;14.80;99.90;;;;;;4985421;28;20025;-64
2023/05/23 07:04:00;;;;;;;22.05;14.88;;;14.80;99.90;;;;;;4984838;28;20022;-65
2023/05/23 07:06:26;;;;;;;24.58;16.58;;;14.70;99.90;;;;;;4969795;28;20496;-65
2023/05/23 07:08:52;;;;;;;24.80;17.92;;;14.70;99.90;;;;;;4984274;28;20031;-64
2023/05/23 07:11:19;;;;;;;27.10;17.75;;;14.80;99.90;;;;;;4986725;28;20117;-64
2023/05/23 07:13:45;;;;;;;28.60;17.55;;;14.70;99.90;;;;;;4981498;28;20027;-65
2023/05/23 07:16:11;;;;;;;30.80;18.38;;;14.60;99.90;;;;;;4986118;28;20072;-63
2023/05/23 07:18:37;;;;;;;25.35;17.73;;;14.50;99.90;;;;;;4984411;28;20587;-64
2023/05/23 07:21:02;;;;;;;29.15;18.77;;;14.60;99.90;;;;;;4970094;28;20608;-65
2023/05/23 07:23:32;;;;;;;27.77;18.92;;;14.60;99.90;;;;;;4986903;28;20026;-65
2023/05/23 07:25:58;;;;;;;25.00;16.10;;;14.60;99.90;;;;;;4988923;28;20050;-64
2023/05/23 07:28:23;;;;;;;23.63;17.15;;;14.60;99.90;;;;;;4990384;28;20049;-65
2023/05/23 07:30:49;;;;;;;22.10;15.30;;;14.70;99.90;;;;;;4965489;28;20096;-65
2023/05/23 07:33:15;;;;;;;21.73;15.32;;;14.70;99.90;;;;;;4987924;28;20027;-65
2023/05/23 07:35:42;;;;;;;27.10;15.75;;;14.80;99.90;;;;;;4988284;28;20023;-64
2023/05/23 07:38:08;;;;;;;23.70;13.73;;;14.80;99.90;;;;;;4980164;28;20491;-64
2023/05/23 07:40:34;;;;;;;21.27;12.73;;;14.90;99.90;;;;;;4986145;28;20026;-64
2023/05/23 07:42:59;;;;;;;19.55;14.05;;;14.80;99.90;;;;;;4979245;28;20392;-64
2023/05/23 07:45:25;;;;;;;19.55;13.40;;;14.90;99.90;;;;;;4986706;28;20026;-65
2023/05/23 07:47:51;;;;;;;20.63;12.25;;;15.00;99.90;;;;;;4979777;28;20086;-64
2023/05/23 07:50:17;;;;;;;18.08;12.80;;;14.90;99.90;;;;;;4983330;28;20038;-64
2023/05/23 07:52:43;;;;;;;19.63;13.48;;;14.80;99.90;;;;;;4982020;28;20026;-65
2023/05/23 07:55:09;;;;;;;19.60;13.95;;;14.80;99.90;;;;;;4982630;28;20030;-64
2023/05/23 07:57:34;;;;;;;18.20;13.15;;;14.80;99.90;;;;;;4984275;28;20515;-64
2023/05/23 08:00:00;;;;;;;18.77;12.93;;;14.90;99.90;;;;;;4987592;28;20122;-64
2023/05/23 08:02:25;;;;;;;16.35;12.60;;;14.90;99.90;;;;;;4986918;28;20551;-64
2023/05/23 08:04:52;;;;;;;18.13;12.82;;;14.80;99.90;;;;;;4985247;28;20018;-64
2023/05/23 08:07:18;;;;;;;18.95;13.32;;;14.90;99.90;;;;;;4981885;28;20029;-64
2023/05/23 08:09:43;;;;;;;19.33;13.05;;;14.80;99.90;;;;;;4983792;28;20038;-64
2023/05/23 08:12:13;;;;;;;16.55;11.68;;;14.80;99.90;;;;;;4985433;28;20026;-64
2023/05/23 08:14:38;;;;;;;17.85;12.35;;;14.80;99.90;;;;;;4986762;28;20022;-65
2023/05/23 08:17:04;;;;;;;18.17;11.25;;;14.80;99.90;;;;;;4987421;28;20627;-64
2023/05/23 08:19:29;;;;;;;17.52;12.45;;;14.80;99.90;;;;;;4979181;28;20491;-65
2023/05/23 08:21:55;;;;;;;17.80;10.27;;;14.80;99.90;;;;;;4976634;28;20022;-64
2023/05/23 08:24:21;;;;;;;13.63;9.60;;;14.70;99.90;;;;;;4988631;28;20473;-65
2023/05/23 08:26:47;;;;;;;15.27;9.18;;;14.80;99.90;;;;;;4983697;28;20066;-65
2023/05/23 08:29:13;;;;;;;15.18;8.32;;;14.80;99.90;;;;;;4986321;28;20035;-64
2023/05/23 08:31:38;;;;;;;9.57;7.60;;;15.00;99.90;;;;;;4963359;28;20050;-64
2023/05/23 08:34:05;;;;;;;17.90;9.48;;;15.10;99.90;;;;;;4969382;28;20049;-64
2023/05/23 08:36:33;;;;;;;20.75;11.63;;;15.10;99.90;;;;;;4980028;28;20034;-64
2023/05/23 08:38:58;;;;;;;17.92;12.75;;;15.20;99.90;;;;;;4988509;28;20128;-65
2023/05/23 08:41:25;;;;;;;27.42;12.82;;;15.20;99.90;;;;;;4972452;28;20026;-65
2023/05/23 08:43:51;;;;;;;16.08;11.88;;;15.20;99.90;;;;;;4993677;28;20050;-64
2023/05/23 08:46:17;;;;;;;20.38;11.25;;;15.20;99.90;;;;;;4991844;28;20445;-64
2023/05/23 08:48:47;;;;;;;20.40;11.23;;;15.30;99.90;;;;;;4990533;28;20033;-64
2023/05/23 08:51:14;;;;;;;14.10;9.50;;;15.10;99.90;;;;;;4989218;28;20034;-65
2023/05/23 08:53:52;;;;;;;17.60;10.55;;;15.10;99.90;;;;;;4993628;28;20387;-65
2023/05/23 08:56:19;;;;;;;17.00;9.05;;;15.10;99.90;;;;;;4990978;28;20476;-65
2023/05/23 08:58:46;;;;;;;12.50;8.65;;;15.00;99.90;;;;;;4991636;28;20030;-65
2023/05/23 09:01:13;;;;;;;11.88;8.00;;;15.10;99.90;;;;;;4993120;28;20042;-65
2023/05/23 09:03:41;;;;;;;14.18;7.63;;;15.10;99.90;;;;;;4988060;28;20089;-65
2023/05/23 09:06:08;;;;;;;13.68;9.15;;;15.10;99.90;;;;;;4986395;28;20030;-65
2023/05/23 09:08:34;;;;;;;11.98;8.75;;;15.30;99.90;;;;;;4984051;28;20041;-65
2023/05/23 09:11:04;;;;;;;14.52;8.88;;;15.50;99.90;;;;;;4988256;28;20041;-66
2023/05/23 09:13:31;;;;;;;10.68;7.70;;;15.50;99.90;;;;;;4986767;28;20085;-65
2023/05/23 09:16:08;;;;;;;13.07;8.60;;;15.60;99.90;;;;;;4979527;28;20033;-64
2023/05/23 09:18:41;;;;;;;11.02;7.82;;;15.60;99.90;;;;;;4990081;28;20046;-65
2023/05/23 09:21:08;;;;;;;17.83;12.57;;;15.90;99.90;;;;;;4988997;28;20064;-66
2023/05/23 09:23:35;;;;;;;25.50;14.93;;;16.20;99.90;;;;;;4988118;28;20050;-65
2023/05/23 09:26:09;;;;;;;21.15;13.65;;;16.40;99.90;;;;;;4983933;28;20043;-64
2023/05/23 09:28:36;;;;;;;20.70;14.63;;;16.30;99.90;;;;;;4991435;28;20080;-65
2023/05/23 09:31:07;;;;;;;23.05;14.23;;;16.50;99.90;;;;;;4985719;28;20041;-65
2023/05/23 09:33:49;;;;;;;22.63;13.95;;;16.50;99.90;;;;;;4965940;28;20042;-64
2023/05/23 09:36:16;;;;;;;23.85;13.43;;;16.70;99.90;;;;;;4983237;28;20037;-64
2023/05/23 09:38:44;;;;;;;19.80;12.32;;;16.80;99.90;;;;;;4986318;28;20065;-65
2023/05/23 09:41:12;;;;;;;17.25;11.65;;;16.70;99.90;;;;;;4989983;28;20498;-65
2023/05/23 09:43:52;;;;;;;20.10;12.40;;;16.90;99.90;;;;;;4991511;28;20027;-65
2023/05/23 09:46:19;;;;;;;19.83;11.85;;;16.90;99.90;;;;;;4985564;28;20023;-65
2023/05/23 09:48:51;;;;;;;20.02;13.45;;;17.10;99.90;;;;;;4990560;28;20432;-65
2023/05/23 09:51:21;;;;;;;17.50;13.57;;;17.20;99.90;;;;;;4967401;28;20042;-65
2023/05/23 09:53:48;;;;;;;22.95;13.52;;;17.10;99.90;;;;;;4985529;28;20054;-65
2023/05/23 09:56:16;;;;;;;21.73;13.80;;;16.90;99.90;;;;;;4976114;28;20035;-61
2023/05/23 09:58:53;;;;;;;26.42;14.15;;;16.80;99.90;;;;;;4982815;28;20049;-64
2023/05/23 10:01:22;;;;;;;22.50;16.35;;;16.60;99.90;;;;;;4987759;28;20484;-65
2023/05/23 10:03:56;;;;;;;25.98;17.08;;;16.50;99.90;;;;;;4985362;28;20117;-65
2023/05/23 10:06:36;;;;;;;25.27;16.88;;;16.20;99.90;;;;;;4987074;28;20018;-65
2023/05/23 10:09:04;;;;;;;25.92;16.35;;;16.00;99.90;;;;;;4982523;28;20034;-64
2023/05/23 10:11:33;;;;;;;27.60;16.60;;;15.80;99.90;;;;;;4985257;28;20101;-64
2023/05/23 10:14:02;;;;;;;21.45;14.88;;;15.60;99.90;;;;;;4987292;28;20042;-64
2023/05/23 10:16:47;;;;;;;27.38;17.17;;;15.60;99.90;;;;;;4980887;28;20037;-64
2023/05/23 10:19:26;;;;;;;26.80;16.85;;;15.60;99.90;;;;;;4981964;28;20042;-62
2023/05/23 10:22:02;;;;;;;28.73;18.25;;;15.60;99.90;;;;;;4985208;28;20030;-65
2023/05/23 10:24:28;;;;;;;33.33;19.50;;;15.70;99.90;;;;;;4985919;28;20038;-64
2023/05/23 10:26:55;;;;;;;39.58;19.42;;;15.70;99.90;;;;;;4983407;28;20026;-64
2023/05/23 10:29:24;;;;;;;37.08;22.08;;;15.60;99.90;;;;;;4967603;28;20049;-65
2023/05/23 10:31:51;;;;;;;35.75;18.98;;;15.60;99.90;;;;;;4982940;28;20033;-64
2023/05/23 10:34:40;;;;;;;35.45;20.35;;;15.60;99.90;;;;;;4964350;28;20425;-66
2023/05/23 10:37:09;;;;;;;33.92;18.80;;;15.40;99.90;;;;;;4988871;28;20424;-65
2023/05/23 10:40:04;;;;;;;36.00;21.88;;;15.20;99.90;;;;;;4988719;28;20034;-64
2023/05/23 10:42:53;;;;;;;35.58;23.77;;;15.20;99.90;;;;;;4988511;28;20081;-65
2023/05/23 10:45:20;;;;;;;41.72;24.98;;;15.00;99.90;;;;;;4974278;28;20039;-65
2023/05/23 10:47:52;;;;;;;48.92;28.40;;;14.70;99.90;;;;;;4989901;28;20026;-65
2023/05/23 10:50:33;;;;;;;41.72;28.25;;;14.50;99.90;;;;;;4987962;28;20089;-65
2023/05/23 10:53:01;;;;;;;42.40;26.27;;;14.50;99.90;;;;;;4989017;28;20505;-65
2023/05/23 10:55:35;;;;;;;39.85;26.35;;;14.50;99.90;;;;;;4986554;28;20053;-65
2023/05/23 10:58:21;;;;;;;42.72;25.67;;;14.80;99.90;;;;;;4974167;28;20037;-65
2023/05/23 11:00:55;;;;;;;42.83;25.80;;;15.00;99.90;;;;;;4982708;28;20054;-65
2023/05/23 11:03:46;;;;;;;39.67;24.08;;;15.50;99.90;;;;;;4986722;28;20027;-65
2023/05/23 11:06:41;;;;;;;38.13;22.88;;;16.10;99.90;;;;;;4971691;28;20675;-66
2023/05/23 11:09:18;;;;;;;37.15;23.02;;;17.10;99.90;;;;;;4987505;28;20041;-65
2023/05/23 11:12:04;;;;;;;29.70;20.55;;;17.20;99.90;;;;;;4985900;28;20082;-65
2023/05/23 11:14:32;;;;;;;23.58;15.52;;;17.70;99.90;;;;;;4987576;28;20029;-64
2023/05/23 11:16:59;;;;;;;21.58;12.50;;;18.00;99.90;;;;;;4983193;28;20030;-65
2023/05/23 11:19:27;;;;;;;20.50;10.73;;;18.20;99.90;;;;;;4982822;28;20038;-65
2023/05/23 11:21:54;;;;;;;14.23;8.73;;;18.30;99.90;;;;;;4986286;28;20421;-64
2023/05/23 11:24:21;;;;;;;16.13;8.60;;;18.40;99.90;;;;;;4985527;28;20030;-65
2023/05/23 11:26:59;;;;;;;13.55;7.32;;;18.60;99.90;;;;;;4987031;28;20069;-65
2023/05/23 11:29:28;;;;;;;10.98;6.43;;;18.30;99.90;;;;;;4985986;28;20072;-65
2023/05/23 11:31:55;;;;;;;10.63;6.22;;;17.90;99.90;;;;;;4980778;28;20048;-64
2023/05/23 11:34:24;;;;;;;11.68;5.63;;;18.00;99.90;;;;;;4963766;28;20057;-63
2023/05/23 11:36:56;;;;;;;12.57;5.90;;;18.20;99.90;;;;;;4984789;28;22180;-64
2023/05/23 11:39:22;;;;;;;12.85;5.53;;;18.30;99.90;;;;;;4971605;28;20061;-63
2023/05/23 11:42:08;;;;;;;14.65;6.38;;;18.30;99.90;;;;;;4981111;28;20022;-64
2023/05/23 11:44:34;;;;;;;16.90;8.55;;;18.50;99.90;;;;;;4983601;28;20085;-64
2023/05/23 11:47:05;;;;;;;21.95;13.23;;;18.60;99.90;;;;;;4985975;28;20042;-64
2023/05/23 11:49:35;;;;;;;25.00;13.70;;;18.30;99.90;;;;;;4980397;28;20477;-64
2023/05/23 11:52:01;;;;;;;26.65;14.32;;;18.10;99.90;;;;;;4984825;28;20379;-64
2023/05/23 11:54:27;;;;;;;26.27;16.73;;;18.20;99.90;;;;;;4969486;28;20034;-63
2023/05/23 11:56:54;;;;;;;23.73;15.43;;;18.20;99.90;;;;;;4983602;28;20035;-66
2023/05/23 11:59:25;;;;;;;26.95;16.05;;;17.80;99.90;;;;;;4986776;28;20113;-63
2023/05/23 12:01:54;;;;;;;22.60;14.95;;;17.70;99.90;;;;;;4985171;28;20077;-63
2023/05/23 12:04:20;;;;;;;23.17;15.95;;;17.90;99.90;;;;;;4983595;28;20023;-63
2023/05/23 12:06:47;;;;;;;27.40;15.38;;;17.80;99.90;;;;;;4988615;28;20073;-64
2023/05/23 12:09:13;;;;;;;25.42;16.33;;;17.90;99.90;;;;;;4989033;28;20467;-64
2023/05/23 12:11:40;;;;;;;28.25;17.23;;;17.70;99.90;;;;;;4986023;28;20026;-64
2023/05/23 12:14:07;;;;;;;29.90;18.10;;;17.60;99.90;;;;;;4982818;28;20054;-64
2023/05/23 12:16:33;;;;;;;27.85;15.30;;;17.10;99.90;;;;;;4990752;28;20076;-64
2023/05/23 12:19:04;;;;;;;25.95;14.10;;;16.80;99.90;;;;;;4994928;28;20030;-64
2023/05/23 12:21:41;;;;;;;20.20;11.65;;;16.60;99.90;;;;;;4991073;28;20077;-65
2023/05/23 12:24:18;;;;;;;18.65;10.68;;;16.80;99.90;;;;;;4999575;28;20038;-64
2023/05/23 12:26:51;;;;;;;16.17;8.73;;;17.00;99.90;;;;;;4992487;28;20109;-64
2023/05/23 12:29:29;;;;;;;12.77;7.47;;;17.00;99.90;;;;;;4992263;28;20396;-65
2023/05/23 12:31:57;;;;;;;14.68;6.88;;;17.00;99.90;;;;;;4987113;28;20057;-64
2023/05/23 12:34:23;;;;;;;14.30;6.68;;;17.30;99.90;;;;;;4979763;28;20061;-64